PWSweather.com
Personal Weather Stations
Station Observations

ChardChardGB

Lat: 50.877408, Lon: -2.94964741

Elevation: 341

Station Type: WS3083

http://www.merriott-astro.co.uk/weather/index.htm

High Low Average
Temperature 50.0°F10.0°C 46.4°F8.0°C 48.4°F9.1°C
Dew Point 44.5°F6.9°C 39.9°F4.4°C 42.5°F5.8°C
Winds 6.3 mph 10.1 kmh Calm Calm 4.0 mph E6.4 kmh E
Wind Gusts 11.4 mph18.3 kmh -- 5.0 mph8.0 kmh
Humidity 83% 74% 80%
Pressure 29.84 in1010.5 mb 29.45 in997.3 mb -
Precipitation 0.33 in8.4 mm - -
Hour Temp Dew Point Humidity Winds Wind Gusts Pressure Precip Precip Rate Daily Precip Total
12:00 AM 48.7°F9.3°C 41.2°F5.1°C 75% 3.5 mph ENE5.6 kmh ENE 4.5 mph7.2 kmh 29.84 in1010.5 mb 0.00 in0.0 mm 0.00 in0.0 mm 0.00 in0.0 mm
12:10 AM 48.7°F9.3°C 41.2°F5.1°C 75% 3.3 mph NE5.3 kmh NE 4.5 mph7.2 kmh 29.84 in1010.5 mb 0.00 in0.0 mm 0.00 in0.0 mm 0.00 in0.0 mm
12:20 AM 48.7°F9.3°C 40.8°F4.9°C 74% 3.6 mph NE5.8 kmh NE 4.5 mph7.2 kmh 29.84 in1010.5 mb 0.00 in0.0 mm 0.00 in0.0 mm 0.00 in0.0 mm
12:30 AM 48.6°F9.2°C 40.7°F4.8°C 74% 4.4 mph NE7.1 kmh NE 6.0 mph9.7 kmh 29.84 in1010.5 mb 0.00 in0.0 mm 0.00 in0.0 mm 0.00 in0.0 mm
12:40 AM 48.6°F9.2°C 41.0°F5.0°C 75% 3.1 mph NE5.0 kmh NE 4.5 mph7.2 kmh 29.84 in1010.5 mb 0.00 in0.0 mm 0.00 in0.0 mm 0.00 in0.0 mm
12:50 AM 48.4°F9.1°C 40.8°F4.9°C 75% 4.5 mph ENE7.2 kmh ENE 6.0 mph9.7 kmh 29.84 in1010.5 mb 0.00 in0.0 mm 0.00 in0.0 mm 0.00 in0.0 mm
01:00 AM 48.2°F9.0°C 40.7°F4.8°C 75% 4.0 mph ENE6.4 kmh ENE 5.4 mph8.7 kmh 29.84 in1010.5 mb 0.00 in0.0 mm 0.00 in0.0 mm 0.00 in0.0 mm
01:10 AM 48.0°F8.9°C 40.5°F4.7°C 75% 4.5 mph NE7.2 kmh NE 5.4 mph8.7 kmh 29.84 in1010.5 mb 0.00 in0.0 mm 0.00 in0.0 mm 0.00 in0.0 mm
01:20 AM 47.8°F8.8°C 40.3°F4.6°C 75% 4.5 mph NE7.2 kmh NE 6.9 mph11.1 kmh 29.84 in1010.5 mb 0.00 in0.0 mm 0.00 in0.0 mm 0.00 in0.0 mm
01:30 AM 47.7°F8.7°C 40.1°F4.5°C 75% 4.1 mph ENE6.6 kmh ENE 5.4 mph8.7 kmh 29.84 in1010.5 mb 0.00 in0.0 mm 0.00 in0.0 mm 0.00 in0.0 mm
01:40 AM 47.7°F8.7°C 40.1°F4.5°C 75% 3.8 mph NE6.1 kmh NE 4.5 mph7.2 kmh 29.84 in1010.5 mb 0.00 in0.0 mm 0.00 in0.0 mm 0.00 in0.0 mm
01:50 AM 47.7°F8.7°C 40.1°F4.5°C 75% 4.1 mph E6.6 kmh E 6.0 mph9.7 kmh 29.84 in1010.5 mb 0.00 in0.0 mm 0.00 in0.0 mm 0.00 in0.0 mm
02:00 AM 47.7°F8.7°C 40.1°F4.5°C 75% 3.7 mph NE6.0 kmh NE 4.5 mph7.2 kmh 29.83 in1010.2 mb 0.00 in0.0 mm 0.00 in0.0 mm 0.00 in0.0 mm
02:10 AM 47.7°F8.7°C 40.1°F4.5°C 75% 3.3 mph ENE5.3 kmh ENE 4.5 mph7.2 kmh 29.83 in1010.2 mb 0.00 in0.0 mm 0.00 in0.0 mm 0.00 in0.0 mm
02:20 AM 47.7°F8.7°C 40.1°F4.5°C 75% 2.4 mph ENE3.9 kmh ENE 3.1 mph5.0 kmh 29.83 in1010.2 mb 0.00 in0.0 mm 0.00 in0.0 mm 0.00 in0.0 mm
02:30 AM 47.7°F8.7°C 40.1°F4.5°C 75% 3.1 mph NE5.0 kmh NE 3.8 mph6.1 kmh 29.83 in1010.2 mb 0.00 in0.0 mm 0.00 in0.0 mm 0.00 in0.0 mm
02:40 AM 47.5°F8.6°C 40.0°F4.4°C 75% 3.4 mph ENE5.5 kmh ENE 4.5 mph7.2 kmh 29.83 in1010.2 mb 0.00 in0.0 mm 0.00 in0.0 mm 0.00 in0.0 mm
02:50 AM 47.5°F8.6°C 40.3°F4.6°C 76% 3.5 mph NE5.6 kmh NE 5.4 mph8.7 kmh 29.83 in1010.2 mb 0.00 in0.0 mm 0.00 in0.0 mm 0.00 in0.0 mm
03:00 AM 47.5°F8.6°C 40.3°F4.6°C 76% 4.0 mph NNE6.4 kmh NNE 6.0 mph9.7 kmh 29.83 in1010.2 mb 0.00 in0.0 mm 0.00 in0.0 mm 0.00 in0.0 mm
03:10 AM 47.5°F8.6°C 40.3°F4.6°C 76% 3.3 mph NE5.3 kmh NE 4.5 mph7.2 kmh 29.82 in1009.8 mb 0.00 in0.0 mm 0.00 in0.0 mm 0.00 in0.0 mm
03:20 AM 47.3°F8.5°C 40.1°F4.5°C 76% 4.3 mph NE6.9 kmh NE 6.0 mph9.7 kmh 29.82 in1009.8 mb 0.00 in0.0 mm 0.00 in0.0 mm 0.00 in0.0 mm
03:30 AM 47.3°F8.5°C 40.1°F4.5°C 76% 4.5 mph E7.2 kmh E 6.0 mph9.7 kmh 29.82 in1009.8 mb 0.00 in0.0 mm 0.00 in0.0 mm 0.00 in0.0 mm
03:40 AM 47.3°F8.5°C 40.1°F4.5°C 76% 4.7 mph NE7.6 kmh NE 7.6 mph12.2 kmh 29.82 in1009.8 mb 0.00 in0.0 mm 0.00 in0.0 mm 0.00 in0.0 mm
03:50 AM 47.1°F8.4°C 40.3°F4.6°C 77% 4.8 mph NE7.7 kmh NE 6.0 mph9.7 kmh 29.83 in1010.2 mb 0.00 in0.0 mm 0.00 in0.0 mm 0.00 in0.0 mm
04:00 AM 47.1°F8.4°C 40.3°F4.6°C 77% 5.2 mph ENE8.4 kmh ENE 6.9 mph11.1 kmh 29.81 in1009.5 mb 0.00 in0.0 mm 0.00 in0.0 mm 0.00 in0.0 mm
04:10 AM 46.9°F8.3°C 40.1°F4.5°C 77% 5.0 mph NE8.0 kmh NE 6.0 mph9.7 kmh 29.82 in1009.8 mb 0.00 in0.0 mm 0.00 in0.0 mm 0.00 in0.0 mm
04:20 AM 46.9°F8.3°C 40.1°F4.5°C 77% 5.0 mph NE8.0 kmh NE 6.0 mph9.7 kmh 29.82 in1009.8 mb 0.00 in0.0 mm 0.00 in0.0 mm 0.00 in0.0 mm
04:30 AM 46.9°F8.3°C 40.1°F4.5°C 77% 4.3 mph NE6.9 kmh NE 6.0 mph9.7 kmh 29.82 in1009.8 mb 0.00 in0.0 mm 0.00 in0.0 mm 0.00 in0.0 mm
04:40 AM 46.9°F8.3°C 40.1°F4.5°C 77% 3.8 mph NNE6.1 kmh NNE 4.5 mph7.2 kmh 29.82 in1009.8 mb 0.00 in0.0 mm 0.00 in0.0 mm 0.00 in0.0 mm
04:50 AM 46.9°F8.3°C 40.4°F4.7°C 78% 5.1 mph ENE8.2 kmh ENE 6.9 mph11.1 kmh 29.81 in1009.5 mb 0.00 in0.0 mm 0.00 in0.0 mm 0.00 in0.0 mm
05:00 AM 46.8°F8.2°C 40.3°F4.6°C 78% 3.5 mph N5.6 kmh N 4.5 mph7.2 kmh 29.81 in1009.5 mb 0.00 in0.0 mm 0.00 in0.0 mm 0.00 in0.0 mm
05:10 AM 46.8°F8.2°C 40.3°F4.6°C 78% 3.3 mph NE5.3 kmh NE 4.5 mph7.2 kmh 29.81 in1009.5 mb 0.00 in0.0 mm 0.00 in0.0 mm 0.00 in0.0 mm
05:20 AM 46.6°F8.1°C 40.1°F4.5°C 78% 4.0 mph E6.4 kmh E 5.4 mph8.7 kmh 29.81 in1009.5 mb 0.00 in0.0 mm 0.00 in0.0 mm 0.00 in0.0 mm
05:30 AM 46.6°F8.1°C 40.1°F4.5°C 78% 3.7 mph ENE6.0 kmh ENE 5.4 mph8.7 kmh 29.80 in1009.1 mb 0.00 in0.0 mm 0.00 in0.0 mm 0.00 in0.0 mm
05:40 AM 46.6°F8.1°C 40.1°F4.5°C 78% 3.5 mph E5.6 kmh E 5.4 mph8.7 kmh 29.81 in1009.5 mb 0.00 in0.0 mm 0.00 in0.0 mm 0.00 in0.0 mm
05:50 AM 46.6°F8.1°C 40.1°F4.5°C 78% 2.8 mph NE4.5 kmh NE 3.8 mph6.1 kmh 29.81 in1009.5 mb 0.00 in0.0 mm 0.00 in0.0 mm 0.00 in0.0 mm
06:00 AM 46.6°F8.1°C 40.1°F4.5°C 78% 4.0 mph NE6.4 kmh NE 5.4 mph8.7 kmh 29.80 in1009.1 mb 0.00 in0.0 mm 0.00 in0.0 mm 0.00 in0.0 mm
06:10 AM 46.4°F8.0°C 39.9°F4.4°C 78% 4.1 mph NE6.6 kmh NE 5.4 mph8.7 kmh 29.80 in1009.1 mb 0.00 in0.0 mm 0.00 in0.0 mm 0.00 in0.0 mm
06:20 AM 46.4°F8.0°C 39.9°F4.4°C 78% 3.6 mph ENE5.8 kmh ENE 4.5 mph7.2 kmh 29.80 in1009.1 mb 0.00 in0.0 mm 0.00 in0.0 mm 0.00 in0.0 mm
06:30 AM 46.4°F8.0°C 39.9°F4.4°C 78% 4.1 mph ENE6.6 kmh ENE 6.0 mph9.7 kmh 29.81 in1009.5 mb 0.00 in0.0 mm 0.00 in0.0 mm 0.00 in0.0 mm
06:40 AM 46.6°F8.1°C 40.1°F4.5°C 78% 3.4 mph NE5.5 kmh NE 6.0 mph9.7 kmh 29.81 in1009.5 mb 0.00 in0.0 mm 0.00 in0.0 mm 0.00 in0.0 mm
06:50 AM 46.6°F8.1°C 40.1°F4.5°C 78% 4.0 mph ENE6.4 kmh ENE 4.5 mph7.2 kmh 29.80 in1009.1 mb 0.00 in0.0 mm 0.00 in0.0 mm 0.00 in0.0 mm
07:00 AM 46.6°F8.1°C 40.4°F4.7°C 79% 4.5 mph NE7.2 kmh NE 5.4 mph8.7 kmh 29.80 in1009.1 mb 0.00 in0.0 mm 0.00 in0.0 mm 0.00 in0.0 mm
07:10 AM 46.6°F8.1°C 40.4°F4.7°C 79% 4.9 mph ENE7.9 kmh ENE 6.0 mph9.7 kmh 29.80 in1009.1 mb 0.00 in0.0 mm 0.00 in0.0 mm 0.00 in0.0 mm
07:20 AM 46.8°F8.2°C 40.6°F4.8°C 79% 4.3 mph ENE6.9 kmh ENE 5.4 mph8.7 kmh 29.80 in1009.1 mb 0.00 in0.0 mm 0.00 in0.0 mm 0.00 in0.0 mm
07:30 AM 46.8°F8.2°C 40.6°F4.8°C 79% 5.9 mph NE9.5 kmh NE 9.2 mph14.8 kmh 29.79 in1008.8 mb 0.00 in0.0 mm 0.00 in0.0 mm 0.00 in0.0 mm
07:40 AM 46.9°F8.3°C 41.1°F5.1°C 80% 4.4 mph NE7.1 kmh NE 7.6 mph12.2 kmh 29.80 in1009.1 mb 0.00 in0.0 mm 0.00 in0.0 mm 0.00 in0.0 mm
07:50 AM 46.9°F8.3°C 41.1°F5.1°C 80% 4.2 mph NNE6.8 kmh NNE 6.0 mph9.7 kmh 29.79 in1008.8 mb 0.00 in0.0 mm 0.00 in0.0 mm 0.00 in0.0 mm
08:00 AM 46.9°F8.3°C 41.1°F5.1°C 80% 4.6 mph E7.4 kmh E 6.0 mph9.7 kmh 29.79 in1008.8 mb 0.00 in0.0 mm 0.00 in0.0 mm 0.00 in0.0 mm
08:10 AM 47.1°F8.4°C 41.3°F5.2°C 80% 4.9 mph NE7.9 kmh NE 7.6 mph12.2 kmh 29.78 in1008.5 mb 0.00 in0.0 mm 0.00 in0.0 mm 0.00 in0.0 mm
08:20 AM 47.3°F8.5°C 41.4°F5.2°C 80% 3.9 mph ENE6.3 kmh ENE 5.4 mph8.7 kmh 29.78 in1008.5 mb 0.00 in0.0 mm 0.00 in0.0 mm 0.00 in0.0 mm
08:30 AM 47.5°F8.6°C 41.6°F5.3°C 80% 3.6 mph NE5.8 kmh NE 5.4 mph8.7 kmh 29.78 in1008.5 mb 0.00 in0.0 mm 0.00 in0.0 mm 0.00 in0.0 mm
08:40 AM 47.7°F8.7°C 41.8°F5.4°C 80% 4.6 mph NE7.4 kmh NE 6.0 mph9.7 kmh 29.78 in1008.5 mb 0.00 in0.0 mm 0.00 in0.0 mm 0.00 in0.0 mm
08:50 AM 47.8°F8.8°C 42.0°F5.6°C 80% 4.3 mph NE6.9 kmh NE 6.0 mph9.7 kmh 29.78 in1008.5 mb 0.00 in0.0 mm 0.00 in0.0 mm 0.00 in0.0 mm
09:00 AM 47.8°F8.8°C 42.0°F5.6°C 80% 5.0 mph ENE8.0 kmh ENE 9.2 mph14.8 kmh 29.78 in1008.5 mb 0.00 in0.0 mm 0.00 in0.0 mm 0.00 in0.0 mm
09:10 AM 47.8°F8.8°C 42.0°F5.6°C 80% 4.0 mph ENE6.4 kmh ENE 6.0 mph9.7 kmh 29.77 in1008.1 mb 0.00 in0.0 mm 0.00 in0.0 mm 0.00 in0.0 mm
09:20 AM 48.0°F8.9°C 42.2°F5.7°C 80% 3.9 mph NE6.3 kmh NE 5.4 mph8.7 kmh 29.78 in1008.5 mb 0.00 in0.0 mm 0.00 in0.0 mm 0.00 in0.0 mm
09:30 AM 48.2°F9.0°C 42.3°F5.7°C 80% 3.7 mph ENE6.0 kmh ENE 6.0 mph9.7 kmh 29.77 in1008.1 mb 0.00 in0.0 mm 0.00 in0.0 mm 0.00 in0.0 mm
09:40 AM 48.2°F9.0°C 42.6°F5.9°C 81% 4.5 mph ENE7.2 kmh ENE 6.0 mph9.7 kmh 29.76 in1007.8 mb 0.00 in0.0 mm 0.00 in0.0 mm 0.00 in0.0 mm
09:50 AM 48.4°F9.1°C 42.8°F6.0°C 81% 3.9 mph NE6.3 kmh NE 6.0 mph9.7 kmh 29.76 in1007.8 mb 0.00 in0.0 mm 0.00 in0.0 mm 0.00 in0.0 mm
10:00 AM 48.6°F9.2°C 43.0°F6.1°C 81% 4.1 mph ENE6.6 kmh ENE 6.0 mph9.7 kmh 29.75 in1007.5 mb 0.01 in0.3 mm 0.01 in0.3 mm 0.01 in0.3 mm
10:10 AM 48.6°F9.2°C 43.0°F6.1°C 81% 4.9 mph NE7.9 kmh NE 6.0 mph9.7 kmh 29.76 in1007.8 mb 0.01 in0.3 mm 0.00 in0.0 mm 0.01 in0.3 mm
10:20 AM 48.6°F9.2°C 43.0°F6.1°C 81% 6.0 mph NE9.7 kmh NE 6.0 mph9.7 kmh 29.75 in1007.5 mb 0.01 in0.3 mm 0.00 in0.0 mm 0.01 in0.3 mm
10:30 AM 48.6°F9.2°C 43.0°F6.1°C 81% 6.0 mph NE9.7 kmh NE 6.0 mph9.7 kmh 29.75 in1007.5 mb 0.01 in0.3 mm 0.00 in0.0 mm 0.01 in0.3 mm
10:40 AM 48.6°F9.2°C 43.0°F6.1°C 81% 6.0 mph NE9.7 kmh NE 6.0 mph9.7 kmh 29.75 in1007.5 mb 0.01 in0.3 mm 0.00 in0.0 mm 0.01 in0.3 mm
10:50 AM 48.6°F9.2°C 43.0°F6.1°C 81% 6.0 mph NE9.7 kmh NE 6.0 mph9.7 kmh 29.74 in1007.1 mb 0.01 in0.3 mm 0.00 in0.0 mm 0.01 in0.3 mm
11:00 AM 48.6°F9.2°C 43.0°F6.1°C 81% 6.0 mph NE9.7 kmh NE 6.0 mph9.7 kmh 29.74 in1007.1 mb 0.00 in0.0 mm 0.00 in0.0 mm 0.01 in0.3 mm
11:10 AM 48.6°F9.2°C 43.0°F6.1°C 81% 6.0 mph NE9.7 kmh NE 6.0 mph9.7 kmh 29.73 in1006.8 mb 0.00 in0.0 mm 0.00 in0.0 mm 0.01 in0.3 mm
11:20 AM 48.6°F9.2°C 43.0°F6.1°C 81% 6.0 mph NE9.7 kmh NE 6.0 mph9.7 kmh 29.73 in1006.8 mb 0.00 in0.0 mm 0.00 in0.0 mm 0.01 in0.3 mm
11:30 AM 48.6°F9.2°C 43.0°F6.1°C 81% 6.0 mph NE9.7 kmh NE 6.0 mph9.7 kmh 29.73 in1006.8 mb 0.00 in0.0 mm 0.00 in0.0 mm 0.01 in0.3 mm
11:40 AM 48.6°F9.2°C 43.0°F6.1°C 81% 6.0 mph NE9.7 kmh NE 6.0 mph9.7 kmh 29.73 in1006.8 mb 0.00 in0.0 mm 0.00 in0.0 mm 0.01 in0.3 mm
11:50 AM 48.6°F9.2°C 43.0°F6.1°C 81% 6.0 mph NE9.7 kmh NE 6.0 mph9.7 kmh 29.72 in1006.4 mb 0.00 in0.0 mm 0.00 in0.0 mm 0.01 in0.3 mm
12:00 PM 48.6°F9.2°C 43.0°F6.1°C 81% 6.0 mph NE9.7 kmh NE 6.0 mph9.7 kmh 29.71 in1006.1 mb 0.00 in0.0 mm 0.00 in0.0 mm 0.01 in0.3 mm
12:10 PM 48.6°F9.2°C 43.0°F6.1°C 81% 6.0 mph NE9.7 kmh NE 6.0 mph9.7 kmh 29.71 in1006.1 mb 0.00 in0.0 mm 0.00 in0.0 mm 0.01 in0.3 mm
12:20 PM 48.6°F9.2°C 43.0°F6.1°C 81% 6.0 mph NE9.7 kmh NE 6.0 mph9.7 kmh 29.70 in1005.8 mb 0.00 in0.0 mm 0.00 in0.0 mm 0.01 in0.3 mm
12:30 PM 48.6°F9.2°C 43.0°F6.1°C 81% 6.0 mph NE9.7 kmh NE 6.0 mph9.7 kmh 29.69 in1005.4 mb 0.00 in0.0 mm 0.00 in0.0 mm 0.01 in0.3 mm
12:40 PM 48.6°F9.2°C 43.0°F6.1°C 81% 6.0 mph NE9.7 kmh NE 6.0 mph9.7 kmh 29.70 in1005.8 mb 0.00 in0.0 mm 0.00 in0.0 mm 0.01 in0.3 mm
12:50 PM 48.6°F9.2°C 43.0°F6.1°C 81% 6.0 mph NE9.7 kmh NE 6.0 mph9.7 kmh 29.69 in1005.4 mb 0.00 in0.0 mm 0.00 in0.0 mm 0.01 in0.3 mm
01:00 PM 48.6°F9.2°C 43.0°F6.1°C 81% 6.0 mph NE9.7 kmh NE 6.0 mph9.7 kmh 29.69 in1005.4 mb 0.00 in0.0 mm 0.00 in0.0 mm 0.01 in0.3 mm
01:10 PM 49.5°F9.7°C 43.9°F6.6°C 81% 3.8 mph NE6.1 kmh NE 4.5 mph7.2 kmh 29.68 in1005.1 mb 0.01 in0.3 mm 0.06 in1.5 mm 0.02 in0.5 mm
01:20 PM 49.8°F9.9°C 44.2°F6.8°C 81% 3.0 mph NE4.8 kmh NE 3.8 mph6.1 kmh 29.68 in1005.1 mb 0.01 in0.3 mm 0.00 in0.0 mm 0.02 in0.5 mm
01:30 PM 49.6°F9.8°C 44.1°F6.7°C 81% 3.4 mph NE5.5 kmh NE 3.8 mph6.1 kmh 29.67 in1004.7 mb 0.01 in0.3 mm 0.00 in0.0 mm 0.02 in0.5 mm
01:40 PM 49.8°F9.9°C 44.2°F6.8°C 81% 2.3 mph NE3.7 kmh NE 3.8 mph6.1 kmh 29.67 in1004.7 mb 0.02 in0.5 mm 0.06 in1.5 mm 0.04 in1.0 mm
01:50 PM 50.0°F10.0°C 44.4°F6.9°C 81% 2.6 mph ENE4.2 kmh ENE 3.8 mph6.1 kmh 29.66 in1004.4 mb 0.02 in0.5 mm 0.00 in0.0 mm 0.04 in1.0 mm
02:00 PM 50.0°F10.0°C 44.4°F6.9°C 81% 2.4 mph ENE3.9 kmh ENE 3.1 mph5.0 kmh 29.65 in1004.1 mb 0.02 in0.5 mm 0.00 in0.0 mm 0.04 in1.0 mm
02:10 PM 49.8°F9.9°C 44.2°F6.8°C 81% 2.7 mph NE4.3 kmh NE 3.8 mph6.1 kmh 29.65 in1004.1 mb 0.01 in0.3 mm 0.00 in0.0 mm 0.04 in1.0 mm
02:20 PM 49.6°F9.8°C 44.1°F6.7°C 81% 2.8 mph NE4.5 kmh NE 4.5 mph7.2 kmh 29.65 in1004.1 mb 0.01 in0.3 mm 0.00 in0.0 mm 0.04 in1.0 mm
02:30 PM 49.8°F9.9°C 44.2°F6.8°C 81% 1.8 mph NE2.9 kmh NE 2.2 mph3.5 kmh 29.64 in1003.7 mb 0.00 in0.0 mm 0.00 in0.0 mm 0.04 in1.0 mm
02:40 PM 49.8°F9.9°C 44.2°F6.8°C 81% 3.2 mph ENE5.1 kmh ENE 4.5 mph7.2 kmh 29.63 in1003.4 mb 0.00 in0.0 mm 0.00 in0.0 mm 0.04 in1.0 mm
02:50 PM 49.6°F9.8°C 44.1°F6.7°C 81% 3.6 mph NE5.8 kmh NE 5.4 mph8.7 kmh 29.63 in1003.4 mb 0.00 in0.0 mm 0.00 in0.0 mm 0.04 in1.0 mm
03:00 PM 49.6°F9.8°C 44.1°F6.7°C 81% 0.4 mph NE0.6 kmh NE 2.2 mph3.5 kmh 29.62 in1003.0 mb 0.00 in0.0 mm 0.00 in0.0 mm 0.04 in1.0 mm
03:10 PM 50.0°F10.0°C 44.4°F6.9°C 81% 1.7 mph SE2.7 kmh SE 3.8 mph6.1 kmh 29.63 in1003.4 mb 0.00 in0.0 mm 0.00 in0.0 mm 0.04 in1.0 mm
03:20 PM 49.8°F9.9°C 44.2°F6.8°C 81% 2.1 mph SE3.4 kmh SE 3.1 mph5.0 kmh 29.62 in1003.0 mb 0.00 in0.0 mm 0.00 in0.0 mm 0.04 in1.0 mm
03:30 PM 49.8°F9.9°C 44.2°F6.8°C 81% 0.8 mph ESE1.3 kmh ESE 2.2 mph3.5 kmh 29.61 in1002.7 mb 0.00 in0.0 mm 0.00 in0.0 mm 0.04 in1.0 mm
03:40 PM 49.8°F9.9°C 44.2°F6.8°C 81% 1.2 mph ENE1.9 kmh ENE 2.2 mph3.5 kmh 29.61 in1002.7 mb 0.00 in0.0 mm 0.00 in0.0 mm 0.04 in1.0 mm
03:50 PM 49.8°F9.9°C 44.2°F6.8°C 81% 0.1 mph E0.2 kmh E 1.6 mph2.6 kmh 29.60 in1002.4 mb 0.01 in0.3 mm 0.06 in1.5 mm 0.05 in1.3 mm
04:00 PM 49.8°F9.9°C 44.2°F6.8°C 81% 0.8 mph E1.3 kmh E 2.2 mph3.5 kmh 29.59 in1002.0 mb 0.01 in0.3 mm 0.00 in0.0 mm 0.05 in1.3 mm
04:10 PM 49.6°F9.8°C 44.1°F6.7°C 81% 1.1 mph E1.8 kmh E 2.2 mph3.5 kmh 29.60 in1002.4 mb 0.01 in0.3 mm 0.00 in0.0 mm 0.05 in1.3 mm
04:20 PM 49.5°F9.7°C 43.9°F6.6°C 81% 2.5 mph ENE4.0 kmh ENE 4.5 mph7.2 kmh 29.60 in1002.4 mb 0.01 in0.3 mm 0.00 in0.0 mm 0.05 in1.3 mm
04:30 PM 49.3°F9.6°C 43.7°F6.5°C 81% 2.3 mph S3.7 kmh S 4.5 mph7.2 kmh 29.59 in1002.0 mb 0.02 in0.5 mm 0.06 in1.5 mm 0.06 in1.5 mm
04:40 PM 49.1°F9.5°C 43.5°F6.4°C 81% 1.7 mph SE2.7 kmh SE 3.8 mph6.1 kmh 29.59 in1002.0 mb 0.02 in0.5 mm 0.00 in0.0 mm 0.06 in1.5 mm
04:50 PM 49.1°F9.5°C 43.5°F6.4°C 81% 0.4 mph SW0.6 kmh SW 1.6 mph2.6 kmh 29.58 in1001.7 mb 0.02 in0.5 mm 0.00 in0.0 mm 0.07 in1.8 mm
05:00 PM 48.9°F9.4°C 43.4°F6.3°C 81% 1.8 mph SSW2.9 kmh SSW 5.4 mph8.7 kmh 29.58 in1001.7 mb 0.02 in0.5 mm 0.00 in0.0 mm 0.07 in1.8 mm
05:10 PM 48.7°F9.3°C 43.2°F6.2°C 81% 1.1 mph ESE1.8 kmh ESE 3.1 mph5.0 kmh 29.57 in1001.4 mb 0.02 in0.5 mm 0.00 in0.0 mm 0.07 in1.8 mm
05:20 PM 48.6°F9.2°C 43.0°F6.1°C 81% 2.2 mph S3.5 kmh S 4.5 mph7.2 kmh 29.57 in1001.4 mb 0.04 in1.0 mm 0.12 in3.0 mm 0.08 in2.0 mm
05:30 PM 48.6°F9.2°C 43.0°F6.1°C 81% 1.3 mph SE2.1 kmh SE 3.1 mph5.0 kmh 29.56 in1001.0 mb 0.02 in0.5 mm 0.00 in0.0 mm 0.08 in2.0 mm
05:40 PM 48.6°F9.2°C 43.0°F6.1°C 81% 3.3 mph ENE5.3 kmh ENE 4.5 mph7.2 kmh 29.56 in1001.0 mb 0.02 in0.5 mm 0.00 in0.0 mm 0.08 in2.0 mm
05:50 PM 48.6°F9.2°C 43.0°F6.1°C 81% 2.0 mph SSW3.2 kmh SSW 4.5 mph7.2 kmh 29.55 in1000.7 mb 0.01 in0.3 mm 0.00 in0.0 mm 0.08 in2.0 mm
06:00 PM 48.6°F9.2°C 43.0°F6.1°C 81% 2.8 mph SSE4.5 kmh SSE 5.4 mph8.7 kmh 29.56 in1001.0 mb 0.01 in0.3 mm 0.00 in0.0 mm 0.08 in2.0 mm
06:10 PM 48.7°F9.3°C 43.5°F6.4°C 82% 2.8 mph SSE4.5 kmh SSE 5.4 mph8.7 kmh 29.55 in1000.7 mb 0.01 in0.3 mm 0.00 in0.0 mm 0.08 in2.0 mm
06:20 PM 48.9°F9.4°C 43.7°F6.5°C 82% 1.6 mph SE2.6 kmh SE 3.8 mph6.1 kmh 29.55 in1000.7 mb 0.00 in0.0 mm 0.00 in0.0 mm 0.08 in2.0 mm
06:30 PM 48.9°F9.4°C 43.7°F6.5°C 82% 2.5 mph SSW4.0 kmh SSW 3.8 mph6.1 kmh 29.54 in1000.3 mb 0.00 in0.0 mm 0.00 in0.0 mm 0.08 in2.0 mm
06:40 PM 48.9°F9.4°C 43.7°F6.5°C 82% 2.2 mph SE3.5 kmh SE 3.8 mph6.1 kmh 29.55 in1000.7 mb 0.00 in0.0 mm 0.00 in0.0 mm 0.08 in2.0 mm
06:50 PM 48.9°F9.4°C 43.7°F6.5°C 82% 2.2 mph S3.5 kmh S 4.5 mph7.2 kmh 29.53 in1000.0 mb 0.00 in0.0 mm 0.00 in0.0 mm 0.08 in2.0 mm
07:00 PM 49.1°F9.5°C 43.8°F6.6°C 82% 0.9 mph ESE1.4 kmh ESE 3.1 mph5.0 kmh 29.53 in1000.0 mb 0.00 in0.0 mm 0.00 in0.0 mm 0.08 in2.0 mm
07:10 PM 49.1°F9.5°C 43.8°F6.6°C 82% Calm Calm -- 29.53 in1000.0 mb 0.00 in0.0 mm 0.00 in0.0 mm 0.08 in2.0 mm
07:20 PM 49.1°F9.5°C 43.8°F6.6°C 82% 0.5 mph ESE0.8 kmh ESE 4.5 mph7.2 kmh 29.52 in999.7 mb 0.00 in0.0 mm 0.00 in0.0 mm 0.08 in2.0 mm
07:30 PM 49.3°F9.6°C 44.0°F6.7°C 82% 2.9 mph ESE4.7 kmh ESE 6.0 mph9.7 kmh 29.52 in999.7 mb 0.00 in0.0 mm 0.00 in0.0 mm 0.08 in2.0 mm
07:40 PM 49.3°F9.6°C 44.0°F6.7°C 82% 3.5 mph SSE5.6 kmh SSE 6.0 mph9.7 kmh 29.52 in999.7 mb 0.00 in0.0 mm 0.00 in0.0 mm 0.08 in2.0 mm
07:50 PM 49.3°F9.6°C 44.0°F6.7°C 82% 4.4 mph SE7.1 kmh SE 11.4 mph18.3 kmh 29.52 in999.7 mb 0.01 in0.3 mm 0.06 in1.5 mm 0.09 in2.3 mm
08:00 PM 49.1°F9.5°C 43.8°F6.6°C 82% 3.3 mph E5.3 kmh E 5.4 mph8.7 kmh 29.52 in999.7 mb 0.01 in0.3 mm 0.00 in0.0 mm 0.09 in2.3 mm
08:10 PM 49.1°F9.5°C 43.8°F6.6°C 82% 2.6 mph SW4.2 kmh SW 4.5 mph7.2 kmh 29.52 in999.7 mb 0.01 in0.3 mm 0.00 in0.0 mm 0.09 in2.3 mm
08:20 PM 49.1°F9.5°C 44.2°F6.8°C 83% 2.9 mph SSE4.7 kmh SSE 3.8 mph6.1 kmh 29.52 in999.7 mb 0.02 in0.5 mm 0.06 in1.5 mm 0.11 in2.8 mm
08:30 PM 49.1°F9.5°C 44.2°F6.8°C 83% 1.4 mph S2.3 kmh S 4.5 mph7.2 kmh 29.51 in999.3 mb 0.05 in1.3 mm 0.18 in4.6 mm 0.13 in3.3 mm
08:40 PM 48.9°F9.4°C 44.0°F6.7°C 83% 1.9 mph S3.1 kmh S 3.8 mph6.1 kmh 29.51 in999.3 mb 0.05 in1.3 mm 0.00 in0.0 mm 0.13 in3.3 mm
08:50 PM 49.1°F9.5°C 44.2°F6.8°C 83% 2.0 mph S3.2 kmh S 3.8 mph6.1 kmh 29.51 in999.3 mb 0.05 in1.3 mm 0.00 in0.0 mm 0.14 in3.6 mm
09:00 PM 49.3°F9.6°C 44.3°F6.8°C 83% 2.7 mph SE4.3 kmh SE 3.8 mph6.1 kmh 29.50 in999.0 mb 0.05 in1.3 mm 0.00 in0.0 mm 0.14 in3.6 mm
09:10 PM 49.3°F9.6°C 44.3°F6.8°C 83% 2.3 mph SE3.7 kmh SE 4.5 mph7.2 kmh 29.49 in998.6 mb 0.05 in1.3 mm 0.00 in0.0 mm 0.14 in3.6 mm
09:20 PM 49.3°F9.6°C 44.3°F6.8°C 83% 1.7 mph SE2.7 kmh SE 3.1 mph5.0 kmh 29.49 in998.6 mb 0.05 in1.3 mm 0.00 in0.0 mm 0.15 in3.8 mm
09:30 PM 49.3°F9.6°C 44.3°F6.8°C 83% 0.9 mph S1.4 kmh S 3.1 mph5.0 kmh 29.49 in998.6 mb 0.04 in1.0 mm 0.00 in0.0 mm 0.17 in4.3 mm
09:40 PM 49.3°F9.6°C 44.3°F6.8°C 83% 0.8 mph SSE1.3 kmh SSE 3.1 mph5.0 kmh 29.49 in998.6 mb 0.05 in1.3 mm 0.06 in1.5 mm 0.18 in4.6 mm
09:50 PM 49.5°F9.7°C 44.5°F6.9°C 83% 2.3 mph SE3.7 kmh SE 5.4 mph8.7 kmh 29.48 in998.3 mb 0.05 in1.3 mm 0.00 in0.0 mm 0.19 in4.8 mm
10:00 PM 49.3°F9.6°C 44.3°F6.8°C 83% 4.0 mph ESE6.4 kmh ESE 6.0 mph9.7 kmh 29.48 in998.3 mb 0.06 in1.5 mm 0.01 in0.3 mm 0.20 in5.1 mm
10:10 PM 49.3°F9.6°C 44.3°F6.8°C 83% 2.4 mph SE3.9 kmh SE 5.4 mph8.7 kmh 29.48 in998.3 mb 0.08 in2.0 mm 0.12 in3.0 mm 0.22 in5.6 mm
10:20 PM 49.1°F9.5°C 44.2°F6.8°C 83% 3.6 mph ESE5.8 kmh ESE 6.9 mph11.1 kmh 29.46 in997.6 mb 0.07 in1.8 mm 0.00 in0.0 mm 0.22 in5.6 mm
10:30 PM 49.1°F9.5°C 44.2°F6.8°C 83% 2.5 mph SE4.0 kmh SE 5.4 mph8.7 kmh 29.47 in998.0 mb 0.06 in1.5 mm 0.00 in0.0 mm 0.22 in5.6 mm
10:40 PM 48.9°F9.4°C 44.0°F6.7°C 83% 2.4 mph ESE3.9 kmh ESE 5.4 mph8.7 kmh 29.47 in998.0 mb 0.06 in1.5 mm 0.00 in0.0 mm 0.24 in6.1 mm
10:50 PM 48.9°F9.4°C 44.0°F6.7°C 83% 2.6 mph SSW4.2 kmh SSW 6.0 mph9.7 kmh 29.46 in997.6 mb 0.05 in1.3 mm 0.00 in0.0 mm 0.24 in6.1 mm
11:00 PM 48.9°F9.4°C 44.0°F6.7°C 83% 3.9 mph SE6.3 kmh SE 4.5 mph7.2 kmh 29.46 in997.6 mb 0.02 in0.5 mm 0.00 in0.0 mm 0.24 in6.1 mm
11:10 PM 49.1°F9.5°C 44.2°F6.8°C 83% 3.7 mph SE6.0 kmh SE 7.6 mph12.2 kmh 29.46 in997.6 mb 0.04 in1.0 mm 0.12 in3.0 mm 0.26 in6.6 mm
11:20 PM 49.3°F9.6°C 44.3°F6.8°C 83% 5.2 mph ESE8.4 kmh ESE 10.7 mph17.2 kmh 29.46 in997.6 mb 0.06 in1.5 mm 0.12 in3.0 mm 0.28 in7.1 mm
11:30 PM 49.3°F9.6°C 44.3°F6.8°C 83% 6.3 mph E10.1 kmh E 11.4 mph18.3 kmh 29.45 in997.3 mb 0.08 in2.0 mm 0.12 in3.0 mm 0.31 in7.9 mm
11:40 PM 49.3°F9.6°C 44.3°F6.8°C 83% 3.4 mph E5.5 kmh E 6.9 mph11.1 kmh 29.45 in997.3 mb 0.08 in2.0 mm 0.00 in0.0 mm 0.32 in8.1 mm
11:50 PM 49.3°F9.6°C 44.3°F6.8°C 83% 2.8 mph E4.5 kmh E 6.0 mph9.7 kmh 29.45 in997.3 mb 0.09 in2.3 mm 0.06 in1.5 mm 0.33 in8.4 mm